Flight Track Log - Related Links

Times and Time Zones

All times are in EST time to prevent confusion due to time zone crossing. See the SWA4184 flight status page for this flight to view local times or setup timezone preferences in your user account.

Time Position Orientation Groundspeed Altitude Reporting Facility
EST Latitude Longitude Course Direction KTS MPH feet Rate Location/Type
Wed 10:14:23 PM 29.6308 -95.2633 40° Northeast 169 194 700  Level Houston Center
Wed 10:15:36 PM 29.6675 -95.2275 40° Northeast 214 246 3,300 2,344 Climbing Houston Center
Wed 10:16:31 PM 29.7186 -95.2511 338° Northwest 228 262 5,700 3,179 Climbing Houston Center
Wed 10:17:33 PM 29.7811 -95.2822 337° Northwest 240 276 9,500 2,829 Climbing Houston Center
Wed 10:18:34 PM 29.8528 -95.3169 337° Northwest 278 320 11,500 2,459 Climbing Houston Center
Wed 10:19:35 PM 29.9381 -95.3578 337° Northwest 325 374 14,500 3,098 Climbing Houston Center
Wed 10:20:36 PM 30.0261 -95.4011 337° Northwest 342 394 17,800 3,148 Climbing Houston Center
Wed 10:21:37 PM 30.1122 -95.4444 336° Northwest 342 394 20,900 2,607 Climbing Houston Center
Wed 10:22:38 PM 30.2017 -95.4869 338° Northwest 344 396 23,100 2,164 Climbing Houston Center
Wed 10:23:39 PM 30.2928 -95.5319 337° Northwest 354 407 25,300 2,213 Climbing Houston Center
Wed 10:24:40 PM 30.4053 -95.5872 337° Northwest 362 417 27,600 2,164 Climbing Houston Center
Wed 10:25:41 PM 30.5011 -95.6350 337° Northwest 372 428 29,700 1,918 Climbing Houston Center
Wed 10:26:42 PM 30.5944 -95.6831 336° Northwest 368 423 31,500 1,721 Climbing Houston Center
Wed 10:27:43 PM 30.6858 -95.7325 335° Northwest 365 420 33,200 1,721 Climbing Houston Center
Wed 10:28:44 PM 30.7789 -95.7825 335° Northwest 366 421 35,000 1,672 Climbing Houston Center
Wed 10:29:45 PM 30.8692 -95.8308 335° Northwest 361 415 36,600 1,426 Climbing Houston Center
Wed 10:30:46 PM 30.9578 -95.8783 335° Northwest 353 406 37,900 689 Climbing Houston Center
Wed 10:31:47 PM 31.0453 -95.9253 335° Northwest 348 400 38,000 49 Climbing Houston Center
Wed 10:32:48 PM 31.1339 -95.9722 336° Northwest 347 399 38,000  Level Houston Center
Wed 10:33:49 PM 31.2283 -96.0086 342° North 352 405 38,000  Level Houston Center
Wed 10:34:50 PM 31.3200 -96.0439 342° North 348 400 38,000  Level Houston Center
Wed 10:35:51 PM 31.4225 -96.0836 342° North 342 394 38,000  Level Houston Center
Wed 10:36:52 PM 31.5147 -96.1206 341° North 345 397 38,000  Level Houston Center
Wed 10:37:53 PM 31.5961 -96.1728 331° Northwest 332 382 38,000  Level Houston Center
Wed 10:38:50 PM 31.6597 -96.2261 324° Northwest 342 394 38,000  Level Fort Worth Center
Wed 10:39:51 PM 31.7414 -96.2983 323° Northwest 339 390 38,000  Level Fort Worth Center
Wed 10:40:52 PM 31.8169 -96.3642 323° Northwest 338 389 38,000  Level Fort Worth Center
Wed 10:41:53 PM 31.8925 -96.4317 323° Northwest 341 392 38,000  Level Fort Worth Center
Wed 10:42:54 PM 31.9703 -96.4986 324° Northwest 344 396 38,000  Level Fort Worth Center
Wed 10:43:55 PM 32.0453 -96.5661 323° Northwest 341 392 38,000  Level Fort Worth Center
Wed 10:44:56 PM 32.1222 -96.6328 324° Northwest 342 394 38,000  Level Fort Worth Center
Wed 10:45:57 PM 32.2142 -96.7133 323° Northwest 342 394 38,000  Level Fort Worth Center
Wed 10:46:58 PM 32.2908 -96.7811 323° Northwest 343 395 38,000  Level Fort Worth Center
Wed 10:47:59 PM 32.3644 -96.8492 322° Northwest 337 388 38,000  Level Fort Worth Center
Wed 10:49:00 PM 32.4408 -96.9150 324° Northwest 340 391 38,000  Level Fort Worth Center
Wed 10:50:01 PM 32.5175 -96.9825 323° Northwest 340 391 38,000  Level Fort Worth Center
Wed 10:51:02 PM 32.5936 -97.0506 323° Northwest 343 395 38,000  Level Fort Worth Center
Wed 10:52:03 PM 32.6697 -97.1194 323° Northwest 343 395 38,000  Level Fort Worth Center
Wed 10:53:04 PM 32.7469 -97.1881 323° Northwest 344 396 38,000  Level Fort Worth Center
Wed 10:54:05 PM 32.8258 -97.2572 324° Northwest 347 399 38,000  Level Fort Worth Center
Wed 10:55:06 PM 32.9028 -97.3256 323° Northwest 345 397 38,000  Level Fort Worth Center
Wed 10:56:07 PM 32.9822 -97.4017 321° Northwest 353 406 38,000  Level Fort Worth Center
Wed 10:57:08 PM 33.0592 -97.4697 323° Northwest 344 396 38,000  Level Fort Worth Center
Wed 10:58:09 PM 33.1356 -97.5383 323° Northwest 343 395 38,000  Level Fort Worth Center
Wed 10:59:10 PM 33.2114 -97.6075 323° Northwest 343 395 38,000  Level Fort Worth Center
Wed 11:00:11 PM 33.2883 -97.6775 323° Northwest 346 398 38,000  Level Fort Worth Center
Wed 11:01:12 PM 33.3639 -97.7475 322° Northwest 344 396 38,000  Level Fort Worth Center
Wed 11:02:13 PM 33.4394 -97.8150 323° Northwest 341 392 38,000  Level Fort Worth Center
Wed 11:03:14 PM 33.5131 -97.8842 322° Northwest 338 389 38,000  Level Fort Worth Center
Wed 11:04:15 PM 33.6017 -97.9656 323° Northwest 336 387 38,000  Level Fort Worth Center
Wed 11:05:16 PM 33.6761 -98.0336 323° Northwest 336 387 38,000  Level Fort Worth Center
Wed 11:06:17 PM 33.7497 -98.1025 322° Northwest 335 386 38,000  Level Fort Worth Center
Wed 11:07:18 PM 33.8239 -98.1694 323° Northwest 334 384 38,000  Level Fort Worth Center
Wed 11:08:19 PM 33.8981 -98.2389 322° Northwest 337 388 38,000  Level Fort Worth Center
Wed 11:09:20 PM 33.9728 -98.3089 322° Northwest 339 390 38,000  Level Fort Worth Center
Wed 11:10:21 PM 34.0481 -98.3789 322° Northwest 340 391 38,000  Level Fort Worth Center
Wed 11:11:22 PM 34.1228 -98.4500 322° Northwest 344 396 38,000  Level Fort Worth Center
Wed 11:12:23 PM 34.1986 -98.5200 323° Northwest 341 392 38,000  Level Fort Worth Center
Wed 11:13:24 PM 34.2719 -98.5878 323° Northwest 337 388 38,000  Level Fort Worth Center
Wed 11:14:25 PM 34.3453 -98.6567 322° Northwest 332 382 38,000  Level Fort Worth Center
Wed 11:15:26 PM 34.4200 -98.7275 322° Northwest 340 391 38,000  Level Fort Worth Center
Wed 11:16:27 PM 34.4933 -98.7978 322° Northwest 337 388 38,000  Level Fort Worth Center
Wed 11:17:28 PM 34.5817 -98.8817 322° Northwest 335 386 38,000  Level Fort Worth Center
Wed 11:18:29 PM 34.6558 -98.9506 323° Northwest 335 386 38,000  Level Fort Worth Center
Wed 11:19:30 PM 34.7294 -99.0217 322° Northwest 338 389 38,000  Level Fort Worth Center
Wed 11:20:31 PM 34.8031 -99.0919 322° Northwest 336 387 38,000  Level Fort Worth Center
Wed 11:21:32 PM 34.8769 -99.1614 322° Northwest 335 386 38,000  Level Fort Worth Center
Wed 11:22:33 PM 34.9508 -99.2322 322° Northwest 335 386 38,000  Level Fort Worth Center
Wed 11:23:34 PM 35.0250 -99.3033 322° Northwest 337 388 38,000  Level Fort Worth Center
Wed 11:24:35 PM 35.0986 -99.3744 322° Northwest 336 387 38,000  Level Fort Worth Center
Wed 11:25:36 PM 35.1717 -99.4447 322° Northwest 334 384 38,000  Level Fort Worth Center
Wed 11:26:37 PM 35.2467 -99.5167 322° Northwest 339 390 38,000  Level Fort Worth Center
Wed 11:27:38 PM 35.3200 -99.5889 321° Northwest 338 389 38,000  Level Fort Worth Center
Wed 11:28:39 PM 35.3939 -99.6597 322° Northwest 337 388 38,000  Level Fort Worth Center
Wed 11:29:40 PM 35.4686 -99.7333 321° Northwest 341 392 38,000  Level Fort Worth Center
Wed 11:30:10 PM 35.5144 -99.7769 322° Northwest 343 395 38,000  Level Albuquerque Center
Wed 11:31:11 PM 35.5883 -99.8500 321° Northwest 342 394 38,000  Level Albuquerque Center
Wed 11:32:49 PM 35.7089 -99.9683 321° Northwest 344 396 38,000  Level Albuquerque Center
Wed 11:33:50 PM 35.7844 -100.0422 322° Northwest 345 397 38,000  Level Albuquerque Center
Wed 11:34:51 PM 35.8592 -100.1161 321° Northwest 344 396 38,000  Level Albuquerque Center
Wed 11:35:52 PM 35.9333 -100.1908 321° Northwest 343 395 38,000  Level Albuquerque Center
Wed 11:36:53 PM 36.0075 -100.2633 322° Northwest 340 391 38,000  Level Albuquerque Center
Wed 11:37:54 PM 36.0831 -100.3386 321° Northwest 344 396 38,000  Level Albuquerque Center
Wed 11:38:55 PM 36.1572 -100.4114 322° Northwest 341 392 38,000  Level Albuquerque Center
Wed 11:39:57 PM 36.2300 -100.4858 320° Northwest 339 390 38,000  Level Albuquerque Center
Wed 11:40:58 PM 36.3053 -100.5583 322° Northwest 342 394 38,000  Level Albuquerque Center
Wed 11:41:59 PM 36.3797 -100.6339 321° Northwest 343 395 38,000  Level Albuquerque Center
Wed 11:43:00 PM 36.4678 -100.7233 321° Northwest 341 392 38,000  Level Albuquerque Center
Wed 11:44:01 PM 36.5392 -100.7936 322° Northwest 342 394 38,000  Level Albuquerque Center
Wed 11:45:02 PM 36.6100 -100.8656 321° Northwest 341 392 38,000  Level Albuquerque Center
Wed 11:46:03 PM 36.6931 -100.9492 321° Northwest 342 394 38,000  Level Albuquerque Center
Wed 11:47:04 PM 36.7642 -101.0228 320° Northwest 344 396 38,000  Level Albuquerque Center
Wed 11:48:05 PM 36.8347 -101.0944 321° Northwest 343 395 38,000  Level Albuquerque Center
Wed 11:49:06 PM 36.9178 -101.1794 321° Northwest 344 396 38,000  Level Albuquerque Center
Wed 11:50:07 PM 36.9883 -101.2544 320° Northwest 347 399 38,000  Level Albuquerque Center
Wed 11:51:08 PM 37.0592 -101.3275 321° Northwest 345 397 38,000  Level Albuquerque Center
Wed 11:52:28 PM 37.1647 -101.4364 321° Northwest 342 394 38,000  Level Kansas City Center
Wed 11:53:28 PM 37.2356 -101.5083 321° Northwest 341 392 38,000  Level Kansas City Center
Wed 11:54:29 PM 37.3058 -101.5822 320° Northwest 342 394 38,000  Level Kansas City Center
Wed 11:55:30 PM 37.3875 -101.6675 320° Northwest 341 392 38,000  Level Kansas City Center
Wed 11:56:31 PM 37.4589 -101.7425 320° Northwest 345 397 38,000  Level Kansas City Center
Wed 11:57:31 PM 37.5306 -101.8164 321° Northwest 346 398 38,000  Level Kansas City Center
Wed 11:58:32 PM 37.6139 -101.9039 320° Northwest 347 399 38,000  Level Kansas City Center
Wed 11:59:02 PM 37.6494 -101.9414 320° Northwest 345 397 38,000  Level Denver Center
Wed 11:59:33 PM 37.6839 -101.9789 319° Northwest 345 397 38,000  Level Kansas City Center
Thu 12:00:34 AM 37.7547 -102.0536 320° Northwest 345 397 38,000 -197 Level Kansas City Center
Thu 12:01:35 AM 37.8372 -102.1411 320° Northwest 346 398 37,600 -593 Descending Kansas City Center
Thu 12:02:05 AM 37.8697 -102.1836 314° West 346 398 37,100 -600 Descending Denver Center
Thu 12:02:35 AM 37.8992 -102.2267 311° West 345 397 37,000 -98 Descending Kansas City Center
Thu 12:03:06 AM 37.9322 -102.2694 314° West 346 398 37,000  Level Denver Center
Thu 12:04:06 AM 37.9925 -102.3542 312° West 339 390 37,000  Level Denver Center
Thu 12:05:07 AM 38.0664 -102.4533 313° West 345 397 37,000  Level Denver Center
Thu 12:06:08 AM 38.1283 -102.5383 313° West 343 395 37,000  Level Denver Center
Thu 12:07:09 AM 38.1900 -102.6231 313° West 342 394 37,000  Level Denver Center
Thu 12:08:10 AM 38.2622 -102.7231 313° West 342 394 37,000 -295 Level Denver Center
Thu 12:09:11 AM 38.3253 -102.8081 313° West 343 395 36,400 -738 Descending Denver Center
Thu 12:10:12 AM 38.3872 -102.8956 312° West 346 398 35,500 -942 Descending Denver Center
Thu 12:11:12 AM 38.4592 -102.9947 313° West 343 395 34,500 -744 Descending Denver Center
Thu 12:12:13 AM 38.5222 -103.0806 313° West 346 398 34,000 -246 Descending Denver Center
Thu 12:13:14 AM 38.5883 -103.1750 312° West 350 403 34,000  Level Denver Center
Thu 12:14:27 AM 38.6533 -103.2658 313° West 349 402 34,000  Level Denver Center
Thu 12:15:28 AM 38.7303 -103.3731 313° West 343 395 34,000  Level Denver Center
Thu 12:16:29 AM 38.7925 -103.4594 313° West 339 390 34,000  Level Denver Center
Thu 12:17:30 AM 38.8572 -103.5511 312° West 338 389 34,000 -694 Level Denver Center
Thu 12:18:30 AM 38.9222 -103.6419 313° West 345 397 32,600 -1,736 Descending Denver Center
Thu 12:19:31 AM 38.9844 -103.7308 312° West 337 388 30,500 -1,869 Descending Denver Center
Thu 12:20:32 AM 39.0350 -103.8019 312° West 337 388 28,800 -2,262 Descending Denver Center
Thu 12:21:33 AM 39.1164 -103.9206 312° West 318 366 25,900 -2,410 Descending Denver Center
Thu 12:22:34 AM 39.1742 -104.0008 313° West 309 356 23,900 -1,785 Descending Denver Center
Thu 12:23:34 AM 39.2306 -104.0839 311° West 308 354 22,300 -1,289 Descending Denver Center
Thu 12:24:35 AM 39.2919 -104.1525 319° Northwest 298 343 21,300 -1,131 Descending Denver Center
Thu 12:25:36 AM 39.3544 -104.2028 328° Northwest 271 312 20,000 -1,328 Descending Denver Center
Thu 12:26:37 AM 39.4139 -104.2503 328° Northwest 257 296 18,600 -1,475 Descending Denver Center
Thu 12:27:38 AM 39.4717 -104.2978 328° Northwest 249 287 17,000 -722 Descending Denver Center
Thu 12:28:50 AM 39.5317 -104.3461 328° Northwest 253 291 17,000 -124 Level Denver Center
Thu 12:30:03 AM 39.6031 -104.4050 328° Northwest 255 293 16,700 -851 Descending Denver Center
Thu 12:31:04 AM 39.6714 -104.4622 327° Northwest 248 285 15,100 -1,426 Descending Denver Center
Thu 12:32:05 AM 39.7269 -104.5061 329° Northwest 240 276 13,800 -1,426 Descending Denver Center
Thu 12:33:06 AM 39.8078 -104.5222 351° North 257 296 12,200 -1,240 Descending Denver Center
Thu 12:34:06 AM 39.8772 -104.5228 360° North 254 292 11,300 -873 Descending Denver Center
Thu 12:34:56 AM 39.9333 -104.5167 North 238 274 10,600 -1,046 Descending Denver TRACON
Thu 12:35:55 AM 40.0000 -104.5167 360° North 228 262 9,400 -1,271 Descending Denver TRACON
Thu 12:36:54 AM 40.0333 -104.5667 311° West 206 237 8,100 -1,075 Descending Denver TRACON
Thu 12:38:09 AM 39.9975 -104.6408 238° Southwest 195 224 7,000 -706 Descending Denver Center
Thu 12:39:10 AM 39.9644 -104.6819 224° Southwest 163 188 6,500 -595 Descending Denver Center
Thu 12:40:10 AM 39.9203 -104.6864 184° South 159 183 5,800 -595 Descending Denver Center
Thu 12:41:11 AM 39.8775 -104.6867 180° South 160 184 5,300 -492 Descending Denver Center
Thu 12:43:00 AM 39.8617 -104.6732 North  Level Estimated
Thu 12:50:00 AM 39.8617 -104.6732 North  Level Estimated
Thu 12:51:00 AM 39.8617 -104.6732 North  Level Estimated

Login

Don't have an account? Register now (free) for customized features, flight alerts, and more!